Time;durP1;ratioP1;P1;durP2;ratioP2;P2;SDS_P1;SDS_P2;PMS_P1;PMS_P2;Temp;Humidity;BMP_temperature;BMP_pressure;BME280_temperature;BME280_humidity;BME280_pressure;Samples;Min_cycle;Max_cycle;Signal;HPM_P1;HPM_P2
2022/08/21 00:00:28;;;;;;;11.07;4.75;;;;;;;15.10;73.61;101604.22;5156214;27;20050;-76
2022/08/21 00:03:07;;;;;;;8.15;4.60;;;;;;;15.07;73.60;101602.50;5154981;27;20093;-76
2022/08/21 00:05:44;;;;;;;8.00;4.85;;;;;;;15.03;73.68;101605.34;5153961;27;20043;-75
2022/08/21 00:08:13;;;;;;;6.30;4.72;;;;;;;14.99;73.61;101609.03;5151900;27;20047;-76
2022/08/21 00:10:42;;;;;;;11.00;5.05;;;;;;;14.96;73.71;101607.34;5152681;27;20089;-75
2022/08/21 00:13:11;;;;;;;6.72;4.75;;;;;;;14.94;73.82;101610.97;5152877;27;20066;-75
2022/08/21 00:15:43;;;;;;;8.03;5.17;;;;;;;14.90;73.85;101607.59;5149254;27;20039;-76
2022/08/21 00:18:11;;;;;;;7.95;4.88;;;;;;;14.87;73.97;101603.25;5136091;27;20130;-76
2022/08/21 00:20:40;;;;;;;9.48;4.93;;;;;;;14.85;74.13;101597.13;5148583;27;20039;-76
2022/08/21 00:23:08;;;;;;;9.15;5.18;;;;;;;14.84;74.30;101595.41;5150077;27;20089;-76
2022/08/21 00:25:36;;;;;;;10.85;5.10;;;;;;;14.81;74.40;101598.16;5146761;27;20501;-76
2022/08/21 00:28:06;;;;;;;8.77;4.75;;;;;;;14.79;74.59;101597.38;5144849;27;20569;-76
2022/08/21 00:30:33;;;;;;;8.20;4.70;;;;;;;14.77;74.70;101591.25;5152650;27;20086;-76
2022/08/21 00:33:02;;;;;;;7.40;4.70;;;;;;;14.74;74.93;101588.69;5147959;27;20061;-75
2022/08/21 00:35:34;;;;;;;9.45;4.97;;;;;;;14.70;74.71;101589.72;5155889;27;20039;-75
2022/08/21 00:38:03;;;;;;;10.65;5.50;;;;;;;14.68;74.99;101595.06;5152576;27;20067;-75
2022/08/21 00:40:49;;;;;;;8.88;4.93;;;;;;;14.64;74.99;101588.13;5150278;27;20136;-75
2022/08/21 00:43:21;;;;;;;7.78;4.80;;;;;;;14.63;75.03;101588.16;5144290;27;20062;-73
2022/08/21 00:45:53;;;;;;;7.18;4.32;;;;;;;14.60;75.26;101587.34;5149663;27;20446;-73
2022/08/21 00:48:21;;;;;;;10.82;5.28;;;;;;;14.58;75.97;101586.56;5150950;27;20202;-73
2022/08/21 00:51:04;;;;;;;8.85;5.20;;;;;;;14.57;75.66;101590.13;5150310;27;20070;-75
2022/08/21 00:53:32;;;;;;;6.47;4.50;;;;;;;14.53;75.77;101577.03;5156222;27;20560;-75
2022/08/21 00:56:03;;;;;;;7.25;3.90;;;;;;;14.50;75.64;101585.09;5155870;27;20035;-74
2022/08/21 00:58:35;;;;;;;6.47;4.43;;;;;;;14.45;75.84;101579.94;5150346;27;20039;-75
2022/08/21 01:01:06;;;;;;;7.15;4.70;;;;;;;14.41;75.90;101578.31;5151202;27;20049;-74
2022/08/21 01:03:36;;;;;;;7.38;4.50;;;;;;;14.38;76.48;101581.09;5145831;27;20520;-74
2022/08/21 01:06:05;;;;;;;7.28;4.85;;;;;;;14.35;76.62;101579.38;5152254;27;20516;-74
2022/08/21 01:08:34;;;;;;;8.70;5.10;;;;;;;14.32;76.41;101582.16;5155358;27;20484;-74
2022/08/21 01:11:03;;;;;;;9.68;5.45;;;;;;;14.31;76.29;101588.38;5151299;27;20451;-75
2022/08/21 01:13:36;;;;;;;7.15;5.00;;;;;;;14.29;76.33;101579.59;5149916;27;20472;-75
2022/08/21 01:16:08;;;;;;;6.43;4.55;;;;;;;14.29;76.26;101582.25;5153745;27;20121;-74
2022/08/21 01:18:36;;;;;;;7.43;4.57;;;;;;;14.27;76.12;101579.66;5150986;27;20051;-74
2022/08/21 01:21:08;;;;;;;10.32;4.95;;;;;;;14.25;76.16;101583.25;5155732;27;20131;-74
2022/08/21 01:23:43;;;;;;;8.30;4.80;;;;;;;14.22;75.94;101588.69;5148741;27;20035;-74
2022/08/21 01:26:16;;;;;;;7.90;4.80;;;;;;;14.22;76.13;101589.53;5150865;27;20043;-74
2022/08/21 01:29:01;;;;;;;7.28;4.47;;;;;;;14.21;75.77;101589.59;5148011;27;20063;-73
2022/08/21 01:31:31;;;;;;;8.10;5.07;;;;;;;14.20;76.14;101599.34;5143699;27;20039;-73
2022/08/21 01:33:59;;;;;;;8.18;5.13;;;;;;;14.19;76.36;101594.97;5154317;27;20042;-73
2022/08/21 01:36:27;;;;;;;6.78;4.80;;;;;;;14.18;76.40;101589.69;5153925;27;20131;-72
2022/08/21 01:38:55;;;;;;;7.45;4.57;;;;;;;14.18;76.37;101584.41;5153977;27;20039;-73
2022/08/21 01:41:23;;;;;;;6.93;4.93;;;;;;;14.16;76.74;101584.47;5146786;27;20082;-75
2022/08/21 01:43:50;;;;;;;8.68;5.13;;;;;;;14.14;76.57;101583.63;5150009;27;20051;-76
2022/08/21 01:46:18;;;;;;;5.82;4.80;;;;;;;14.12;76.77;101580.16;5151984;27;20560;-76
2022/08/21 01:48:45;;;;;;;9.70;5.60;;;;;;;14.09;76.73;101573.19;5149075;27;20047;-76
2022/08/21 01:51:13;;;;;;;7.47;5.32;;;;;;;14.08;76.67;101579.41;5153131;27;20043;-76
2022/08/21 01:53:41;;;;;;;8.75;5.53;;;;;;;14.04;76.67;101582.22;5152671;27;20092;-77
2022/08/21 01:56:13;;;;;;;7.20;5.00;;;;;;;14.01;76.83;101579.66;5151526;27;20589;-77
2022/08/21 01:58:43;;;;;;;7.93;4.82;;;;;;;13.97;76.88;101581.53;5147290;27;20463;-76
2022/08/21 02:01:10;;;;;;;8.68;5.07;;;;;;;13.93;77.08;101586.09;5126044;27;20535;-76
2022/08/21 02:03:39;;;;;;;5.80;4.57;;;;;;;13.91;77.20;101581.75;5152827;27;20039;-76
2022/08/21 02:06:13;;;;;;;8.77;5.15;;;;;;;13.89;77.27;101583.59;5152376;27;20045;-76
2022/08/21 02:08:40;;;;;;;;;;;;;;;13.83;77.03;101574.03;5146056;27;20565;-76
2022/08/21 02:11:07;;;;;;;6.35;4.80;;;;;;;13.81;77.11;101576.75;5151750;27;20717;-75
2022/08/21 02:13:34;;;;;;;8.63;5.35;;;;;;;13.81;77.23;101576.75;5148682;27;20040;-76
2022/08/21 02:16:04;;;;;;;7.82;5.25;;;;;;;13.80;77.50;101571.47;5141641;27;20044;-76
2022/08/21 02:18:31;;;;;;;6.38;4.68;;;;;;;13.78;77.35;101570.69;5150544;27;20078;-76
2022/08/21 02:20:59;;;;;;;7.32;4.72;;;;;;;13.76;77.15;101567.22;5154849;27;20042;-75
2022/08/21 02:23:26;;;;;;;5.68;5.10;;;;;;;13.75;77.47;101568.13;5137934;27;20047;-76
2022/08/21 02:25:57;;;;;;;8.00;5.25;;;;;;;13.75;77.34;101576.09;5145605;27;20047;-76
2022/08/21 02:28:25;;;;;;;10.23;5.30;;;;;;;13.73;77.37;101570.84;5144218;27;20089;-75
2022/08/21 02:30:56;;;;;;;8.10;4.93;;;;;;;13.71;77.67;101570.00;5152811;27;20047;-74
2022/08/21 02:33:26;;;;;;;10.25;5.40;;;;;;;13.70;77.76;101557.69;5148827;27;20417;-74
2022/08/21 02:35:55;;;;;;;8.50;4.93;;;;;;;13.67;77.71;101565.72;5154701;27;20560;-74
2022/08/21 02:38:29;;;;;;;8.63;5.40;;;;;;;13.65;77.89;101571.06;5143370;27;20114;-74
2022/08/21 02:40:57;;;;;;;10.35;5.25;;;;;;;13.63;77.93;101564.94;5153456;27;20035;-74
2022/08/21 02:43:27;;;;;;;6.43;5.22;;;;;;;13.62;78.13;101559.72;5153003;27;21179;-74
2022/08/21 02:45:57;;;;;;;7.72;5.35;;;;;;;13.61;78.33;101563.28;5154123;27;20093;-74
2022/08/21 02:48:29;;;;;;;6.95;5.50;;;;;;;13.59;78.63;101563.31;5153309;27;20501;-74
2022/08/21 02:51:00;;;;;;;8.00;5.60;;;;;;;13.58;78.54;101561.56;5139952;27;20063;-75
2022/08/21 02:53:29;;;;;;;6.55;5.20;;;;;;;13.55;78.48;101558.16;5151337;27;20549;-76
2022/08/21 02:56:00;;;;;;;9.82;5.45;;;;;;;13.51;78.62;101552.09;5154061;27;20043;-77
2022/08/21 02:58:33;;;;;;;8.38;5.80;;;;;;;13.47;78.64;101556.63;5151401;27;20611;-77
2022/08/21 03:01:09;;;;;;;9.90;5.53;;;;;;;13.43;78.66;101554.97;5149638;27;20040;-77
2022/08/21 03:03:40;;;;;;;8.32;5.75;;;;;;;13.40;78.72;101554.19;5152659;27;20597;-76
2022/08/21 03:06:13;;;;;;;9.60;5.97;;;;;;;13.33;79.03;101549.06;5153147;27;20074;-77
2022/08/21 03:08:40;;;;;;;9.32;6.18;;;;;;;13.30;78.85;101556.25;5149885;27;20075;-76
2022/08/21 03:11:09;;;;;;;9.02;6.30;;;;;;;13.27;78.97;101551.91;5145735;27;20983;-76
2022/08/21 03:13:38;;;;;;;10.50;6.28;;;;;;;13.25;79.37;101551.09;5147908;27;20529;-76
2022/08/21 03:16:07;;;;;;;9.30;6.07;;;;;;;13.22;79.30;101560.91;5141578;27;20039;-76
2022/08/21 03:18:38;;;;;;;9.55;6.38;;;;;;;13.19;79.53;101549.50;5151543;27;20063;-76
2022/08/21 03:21:06;;;;;;;8.27;5.95;;;;;;;13.18;79.86;101549.50;5152373;27;22021;-76
2022/08/21 03:23:33;;;;;;;11.43;7.30;;;;;;;13.15;80.16;101549.63;5140400;27;20039;-76
2022/08/21 03:26:01;;;;;;;10.85;7.65;;;;;;;13.11;80.27;101545.31;5119485;27;20511;-76
2022/08/21 03:28:28;;;;;;;17.88;10.82;;;;;;;13.07;80.29;101541.91;5145100;27;20489;-77
2022/08/21 03:30:56;;;;;;;29.38;17.95;;;;;;;13.02;80.54;101535.91;5145848;27;20118;-76
2022/08/21 03:33:23;;;;;;;29.90;19.92;;;;;;;13.02;80.60;101536.75;5145381;27;20106;-76
2022/08/21 03:36:00;;;;;;;28.48;18.92;;;;;;;13.00;80.31;101546.50;5149135;27;20496;-75
2022/08/21 03:38:30;;;;;;;20.88;13.63;;;;;;;12.98;80.27;101552.75;5152330;27;20534;-74
2022/08/21 03:40:58;;;;;;;14.35;8.60;;;;;;;12.94;80.38;101546.69;5147956;27;20048;-74
2022/08/21 03:43:27;;;;;;;15.10;10.65;;;;;;;12.92;80.54;101539.72;5143352;27;20039;-75
2022/08/21 03:46:03;;;;;;;9.57;7.18;;;;;;;12.91;80.74;101551.22;5141794;27;20424;-76
2022/08/21 03:48:32;;;;;;;10.93;8.10;;;;;;;12.88;80.84;101545.09;5149286;27;20067;-75
2022/08/21 03:50:59;;;;;;;15.73;11.20;;;;;;;12.86;80.94;101544.25;5146279;27;20142;-75
2022/08/21 03:53:26;;;;;;;15.82;10.50;;;;;;;12.85;80.88;101546.97;5151193;27;20035;-74
2022/08/21 03:55:54;;;;;;;12.73;9.65;;;;;;;12.83;80.73;101548.78;5143738;27;20761;-76
2022/08/21 03:58:25;;;;;;;11.07;7.85;;;;;;;12.81;80.79;101545.31;5143377;27;20118;-74
2022/08/21 04:00:56;;;;;;;11.38;8.20;;;;;;;12.75;81.04;101549.00;5144407;27;20122;-76
2022/08/21 04:03:25;;;;;;;8.77;7.20;;;;;;;12.73;81.11;101543.75;5152134;27;20043;-75
2022/08/21 04:05:52;;;;;;;12.50;7.70;;;;;;;12.71;80.88;101548.22;5149283;27;20039;-76
2022/08/21 04:08:20;;;;;;;9.77;8.18;;;;;;;12.72;80.94;101544.66;5151734;27;20122;-76
2022/08/21 04:10:52;;;;;;;9.77;7.80;;;;;;;12.72;80.80;101546.41;5149743;27;20516;-76
2022/08/21 04:13:20;;;;;;;11.18;8.20;;;;;;;12.69;80.56;101539.44;5149911;27;20039;-77
2022/08/21 04:15:48;;;;;;;10.55;7.70;;;;;;;12.67;80.70;101543.91;5149040;27;20118;-76
2022/08/21 04:18:21;;;;;;;11.32;7.70;;;;;;;12.65;80.57;101548.41;5141701;27;20054;-74
2022/08/21 04:20:53;;;;;;;11.60;8.07;;;;;;;12.65;80.76;101547.50;5132712;27;20117;-75
2022/08/21 04:23:21;;;;;;;12.25;8.65;;;;;;;12.65;81.26;101545.75;5151214;27;20047;-76
2022/08/21 04:25:52;;;;;;;10.27;8.60;;;;;;;12.66;80.93;101544.84;5145603;27;20051;-75
2022/08/21 04:28:21;;;;;;;14.43;9.20;;;;;;;12.66;80.91;101546.59;5140303;27;20114;-76
2022/08/21 04:30:53;;;;;;;11.13;8.85;;;;;;;12.66;80.75;101543.97;5133840;27;20044;-76
2022/08/21 04:33:22;;;;;;;14.75;9.32;;;;;;;12.67;80.67;101543.06;5146036;27;20556;-76
2022/08/21 04:35:50;;;;;;;11.30;8.52;;;;;;;12.68;80.99;101544.78;5153833;27;20063;-76
2022/08/21 04:38:18;;;;;;;10.27;8.63;;;;;;;12.68;81.38;101544.78;5153572;27;20552;-76
2022/08/21 04:40:46;;;;;;;13.65;9.18;;;;;;;12.69;81.28;101547.38;5153352;27;20110;-76
2022/08/21 04:43:13;;;;;;;12.95;8.77;;;;;;;12.72;81.48;101547.31;5148552;27;20118;-76
2022/08/21 04:45:45;;;;;;;15.73;9.90;;;;;;;12.76;81.42;101557.81;5152362;27;20036;-75
2022/08/21 04:48:17;;;;;;;16.23;9.60;;;;;;;12.77;81.35;101541.88;5152259;27;20075;-76
2022/08/21 04:51:00;;;;;;;12.43;9.35;;;;;;;12.81;81.48;101547.94;5142095;27;20125;-77
2022/08/21 04:53:35;;;;;;;15.15;10.52;;;;;;;12.88;81.35;101557.44;5152081;27;20043;-77
2022/08/21 04:56:14;;;;;;;13.15;10.27;;;;;;;12.93;81.33;101552.00;5147371;27;20035;-75
2022/08/21 04:58:42;;;;;;;14.82;11.70;;;;;;;12.99;81.45;101554.50;5152048;27;20046;-74
2022/08/21 05:01:17;;;;;;;15.90;11.32;;;;;;;13.05;81.42;101547.25;5131491;27;20053;-73
2022/08/21 05:03:49;;;;;;;18.33;12.52;;;;;;;13.14;81.37;101550.53;5152705;27;20074;-74
2022/08/21 05:06:17;;;;;;;18.83;13.23;;;;;;;13.23;81.42;101549.41;5151890;27;20201;-74
2022/08/21 05:08:48;;;;;;;17.95;13.27;;;;;;;13.33;81.26;101561.41;5153059;27;20126;-75
2022/08/21 05:11:15;;;;;;;17.75;12.85;;;;;;;13.42;81.40;101555.91;5141454;27;20046;-74
2022/08/21 05:13:45;;;;;;;16.27;13.50;;;;;;;13.52;81.52;101551.19;5134137;27;20126;-73
2022/08/21 05:16:12;;;;;;;19.20;14.07;;;;;;;13.62;81.39;101555.25;5146069;27;20039;-74
2022/08/21 05:18:39;;;;;;;17.63;13.30;;;;;;;13.73;81.39;101554.06;5108062;27;20053;-73
2022/08/21 05:21:06;;;;;;;17.10;12.65;;;;;;;13.84;81.44;101565.19;5089608;28;20083;-72
2022/08/21 05:23:33;;;;;;;15.80;12.95;;;;;;;13.95;81.06;101551.56;5091963;28;20495;-71
2022/08/21 05:26:01;;;;;;;18.52;12.88;;;;;;;14.22;80.66;101556.88;5084275;28;20124;-75
2022/08/21 05:28:28;;;;;;;15.15;12.20;;;;;;;14.62;79.73;101562.56;5092352;28;20123;-78
2022/08/21 05:30:55;;;;;;;15.77;12.32;;;;;;;15.59;77.80;101566.03;5092538;28;20134;-76
2022/08/21 05:33:23;;;;;;;14.38;11.18;;;;;;;16.81;74.71;101568.91;5087059;28;20116;-76
2022/08/21 05:35:53;;;;;;;12.38;10.55;;;;;;;18.76;69.18;101564.78;5087864;28;20044;-76
2022/08/21 05:38:24;;;;;;;13.13;9.80;;;;;;;20.48;63.90;101557.78;5073738;28;20138;-76
2022/08/21 05:40:51;;;;;;;13.05;8.52;;;;;;;21.83;58.49;101562.72;5089943;28;20530;-77
2022/08/21 05:43:18;;;;;;;10.35;7.60;;;;;;;22.55;55.85;101566.00;5087483;28;20123;-76
2022/08/21 05:45:48;;;;;;;12.63;7.25;;;;;;;21.63;56.19;101566.72;5089106;28;20048;-77
2022/08/21 05:48:28;;;;;;;9.90;7.75;;;;;;;20.02;59.55;101573.91;5092234;28;20041;-76
2022/08/21 05:50:55;;;;;;;14.63;7.25;;;;;;;18.97;62.48;101579.78;5089109;28;20127;-76
2022/08/21 05:53:24;;;;;;;12.40;7.82;;;;;;;18.18;64.57;101575.84;5089677;28;20047;-76
2022/08/21 05:55:52;;;;;;;11.02;7.68;;;;;;;17.65;66.08;101583.72;5090951;28;20561;-76
2022/08/21 05:58:22;;;;;;;11.38;8.55;;;;;;;17.21;67.61;101577.75;5091251;28;20111;-76
2022/08/21 06:00:51;;;;;;;18.48;9.25;;;;;;;16.89;68.94;101574.72;5090418;28;20091;-76
2022/08/21 06:03:29;;;;;;;12.98;8.63;;;;;;;16.72;69.95;101579.97;5091658;28;20528;-76
2022/08/21 06:05:57;;;;;;;13.40;7.75;;;;;;;16.58;70.38;101583.25;5062883;28;20036;-77
2022/08/21 06:08:25;;;;;;;13.02;8.55;;;;;;;16.48;70.91;101584.56;5082863;28;20100;-78
2022/08/21 06:10:56;;;;;;;14.30;8.68;;;;;;;16.40;71.16;101583.13;5087217;28;20091;-75
2022/08/21 06:13:26;;;;;;;13.35;8.43;;;;;;;16.33;71.58;101578.97;5089884;28;20068;-76
2022/08/21 06:16:11;;;;;;;16.38;8.95;;;;;;;16.33;72.01;101578.13;5086129;28;20052;-77
2022/08/21 06:18:44;;;;;;;13.85;8.68;;;;;;;16.32;71.96;101587.03;5092298;28;20104;-77
2022/08/21 06:21:13;;;;;;;13.23;8.13;;;;;;;16.25;72.27;101581.97;5093585;28;20060;-76
2022/08/21 06:23:42;;;;;;;14.60;8.65;;;;;;;16.22;72.52;101581.25;5090616;28;20723;-76
2022/08/21 06:26:13;;;;;;;13.18;8.60;;;;;;;16.22;72.76;101582.09;5084330;28;20123;-76
2022/08/21 06:28:42;;;;;;;11.80;8.05;;;;;;;16.30;72.81;101589.75;5076449;28;20064;-75
2022/08/21 06:31:22;;;;;;;10.95;7.55;;;;;;;16.35;72.97;101586.91;5092203;28;20045;-75
2022/08/21 06:33:50;;;;;;;12.20;7.07;;;;;;;16.39;72.95;101581.38;5092284;28;20036;-74
2022/08/21 06:36:18;;;;;;;11.88;7.15;;;;;;;16.47;72.98;101586.38;5091065;28;20123;-74
2022/08/21 06:38:49;;;;;;;10.18;6.65;;;;;;;16.56;73.01;101585.97;5092396;28;20041;-75
2022/08/21 06:41:21;;;;;;;11.65;7.18;;;;;;;16.65;72.54;101583.84;5089495;28;20052;-75
2022/08/21 06:43:55;;;;;;;11.23;7.00;;;;;;;16.71;72.68;101583.56;5083738;28;20561;-76
2022/08/21 06:46:25;;;;;;;12.02;6.75;;;;;;;16.77;72.92;101589.47;5086527;28;20036;-76
2022/08/21 06:48:53;;;;;;;12.63;5.72;;;;;;;16.83;73.08;101585.69;5084072;28;20120;-78
2022/08/21 06:51:20;;;;;;;14.88;5.60;;;;;;;16.96;72.83;101582.50;5085316;28;20091;-78
2022/08/21 06:53:49;;;;;;;10.60;5.47;;;;;;;17.05;72.58;101588.25;5091396;28;20151;-78
2022/08/21 06:56:16;;;;;;;6.78;4.57;;;;;;;17.20;72.65;101593.81;5088537;28;20084;-78
2022/08/21 06:58:43;;;;;;;12.80;5.97;;;;;;;17.36;72.16;101594.81;5089608;28;20048;-81
2022/08/21 07:01:13;;;;;;;12.68;5.47;;;;;;;17.45;71.88;101582.03;5091694;28;20115;-78
2022/08/21 07:03:43;;;;;;;12.73;4.97;;;;;;;17.54;71.37;101581.59;5091080;28;20045;-79
2022/08/21 07:06:11;;;;;;;13.90;5.22;;;;;;;17.62;71.53;101587.41;5090793;28;20040;-76
2022/08/21 07:08:39;;;;;;;11.52;4.63;;;;;;;17.72;71.32;101587.81;5092139;28;20059;-75
2022/08/21 07:11:17;;;;;;;11.32;4.57;;;;;;;17.81;70.95;101582.03;5091914;28;20070;-76
2022/08/21 07:13:45;;;;;;;13.32;4.55;;;;;;;17.91;70.70;101587.78;5089967;28;20040;-79
2022/08/21 07:16:13;;;;;;;12.35;4.75;;;;;;;17.97;70.63;101581.31;5086764;28;20032;-77
2022/08/21 07:18:40;;;;;;;12.35;4.43;;;;;;;18.07;70.49;101587.03;5089620;28;20056;-78
2022/08/21 07:21:09;;;;;;;11.50;4.55;;;;;;;18.17;70.38;101582.97;5074149;28;20036;-77
2022/08/21 07:23:41;;;;;;;15.82;5.20;;;;;;;18.28;69.71;101593.97;5074150;28;20067;-78
2022/08/21 07:26:10;;;;;;;8.95;4.85;;;;;;;18.34;69.88;101578.59;5090890;28;20523;-79
2022/08/21 07:28:39;;;;;;;12.48;5.43;;;;;;;18.43;69.54;101588.78;5083637;28;20093;-75
2022/08/21 07:31:06;;;;;;;11.35;4.85;;;;;;;18.56;69.46;101578.31;5092328;28;20040;-76
2022/08/21 07:33:34;;;;;;;11.60;4.75;;;;;;;18.64;68.42;101581.44;5090588;28;20045;-76
2022/08/21 07:36:03;;;;;;;8.88;4.68;;;;;;;18.69;68.71;101582.09;5089044;28;20041;-75
2022/08/21 07:38:30;;;;;;;11.32;4.75;;;;;;;18.79;68.80;101579.78;5087272;28;20124;-82
2022/08/21 07:41:01;;;;;;;10.13;4.03;;;;;;;18.86;68.57;101573.19;5073273;28;20041;-82
2022/08/21 07:43:29;;;;;;;11.05;4.80;;;;;;;19.00;68.15;101577.81;5090073;28;20064;-78
2022/08/21 07:45:57;;;;;;;13.10;4.82;;;;;;;19.12;68.27;101576.25;5080852;28;20033;-79
2022/08/21 07:48:24;;;;;;;8.07;4.65;;;;;;;19.23;67.57;101579.22;5088582;28;20095;-79
2022/08/21 07:50:51;;;;;;;11.13;4.43;;;;;;;19.35;67.71;101572.31;5079283;28;20060;-79
2022/08/21 07:53:18;;;;;;;12.00;4.47;;;;;;;19.50;67.59;101569.72;5080738;28;20123;-79
2022/08/21 07:55:45;;;;;;;9.63;4.22;;;;;;;19.58;66.86;101586.19;5077348;28;20045;-82
2022/08/21 07:58:12;;;;;;;10.95;4.60;;;;;;;19.69;66.66;101570.41;5081715;28;20047;-78
2022/08/21 08:00:40;;;;;;;11.27;4.53;;;;;;;19.84;66.69;101586.53;5090535;28;20067;-77
2022/08/21 08:03:08;;;;;;;11.82;4.32;;;;;;;20.00;66.82;101578.47;5080751;28;20144;-78
2022/08/21 08:05:39;;;;;;;14.88;5.00;;;;;;;20.09;65.92;101582.44;5089749;28;20128;-78
2022/08/21 08:08:07;;;;;;;10.45;4.13;;;;;;;20.08;65.91;101575.38;5088523;28;20079;-74
2022/08/21 08:10:37;;;;;;;13.63;4.63;;;;;;;20.23;65.99;101574.47;5088185;28;20049;-77
2022/08/21 08:13:05;;;;;;;12.38;4.28;;;;;;;20.28;64.92;101574.19;5094318;28;20044;-74
2022/08/21 08:15:37;;;;;;;11.52;4.40;;;;;;;20.28;65.45;101577.72;5092717;28;20048;-78
2022/08/21 08:18:04;;;;;;;11.02;4.03;;;;;;;20.36;65.48;101569.25;5079815;28;20164;-77
2022/08/21 08:20:31;;;;;;;15.32;4.60;;;;;;;20.46;65.36;101577.56;5093215;28;20133;-76
2022/08/21 08:22:58;;;;;;;12.40;4.28;;;;;;;20.55;64.91;101568.13;5093578;28;20056;-77
2022/08/21 08:25:27;;;;;;;16.15;4.63;;;;;;;20.61;65.09;101567.72;5094461;28;20040;-76
2022/08/21 08:28:04;;;;;;;13.60;4.70;;;;;;;20.62;64.70;101569.44;5089206;28;20169;-77
2022/08/21 08:30:46;;;;;;;10.75;4.30;;;;;;;20.64;64.85;101567.53;5089334;28;20042;-77
2022/08/21 08:33:15;;;;;;;11.73;4.00;;;;;;;20.78;64.75;101564.91;5089126;28;20124;-76
2022/08/21 08:35:47;;;;;;;13.65;4.28;;;;;;;20.93;64.75;101554.19;5090398;28;20072;-77
2022/08/21 08:38:19;;;;;;;10.10;3.58;;;;;;;21.07;64.40;101567.59;5089555;28;20048;-76
2022/08/21 08:41:15;;;;;;;14.88;4.22;;;;;;;20.99;63.05;101560.97;5093428;28;20044;-75
2022/08/21 08:43:51;;;;;;;10.95;3.58;;;;;;;20.93;63.89;101559.53;5086140;28;20055;-74
2022/08/21 08:46:34;;;;;;;10.50;3.58;;;;;;;20.91;63.70;101553.41;5087757;28;20064;-76
2022/08/21 08:49:29;;;;;;;13.65;4.07;;;;;;;20.78;63.30;101550.66;5093924;28;20047;-74
2022/08/21 08:52:28;;;;;;;12.85;3.67;;;;;;;20.51;64.12;101538.00;5090237;28;20485;-76
2022/08/21 08:55:20;;;;;;;11.68;3.10;;;;;;;20.40;64.42;101538.63;5089394;28;20072;-80
2022/08/21 08:57:55;;;;;;;9.23;3.60;;;;;;;20.46;64.13;101538.28;5089901;28;20128;-77
2022/08/21 09:00:24;;;;;;;14.88;3.40;;;;;;;20.45;64.13;101536.53;5093385;28;20040;-78
2022/08/21 09:02:58;;;;;;;12.65;3.05;;;;;;;20.58;63.73;101535.78;5093896;28;20048;-73
2022/08/21 09:05:47;;;;;;;9.43;2.78;;;;;;;20.77;63.97;101538.19;5093188;28;20040;-76
2022/08/21 09:08:49;;;;;;;8.25;2.38;;;;;;;20.89;63.79;101539.28;5086043;28;20534;-76
2022/08/21 09:11:45;;;;;;;11.98;2.88;;;;;;;21.09;62.62;101541.56;5078560;28;20071;-75
2022/08/21 09:15:06;;;;;;;10.35;2.50;;;;;;;21.08;62.57;101538.94;5093722;28;20116;-75
2022/08/21 09:18:22;;;;;;;9.95;2.30;;;;;;;21.26;61.68;101543.13;5084868;28;20052;-76
2022/08/21 09:21:04;;;;;;;7.55;2.33;;;;;;;21.41;61.85;101529.69;5092138;28;20099;-74
2022/08/21 09:23:46;;;;;;;11.82;3.03;;;;;;;21.63;60.35;101529.16;5092995;28;20487;-73
2022/08/21 09:26:19;;;;;;;7.78;2.40;;;;;;;21.85;60.14;101530.41;5093604;28;20142;-71
2022/08/21 09:28:58;;;;;;;11.43;2.65;;;;;;;22.17;58.74;101532.72;5093345;28;20041;-73
2022/08/21 09:31:37;;;;;;;9.48;2.00;;;;;;;22.37;58.94;101520.63;5093934;28;20047;-71
2022/08/21 09:34:11;;;;;;;7.25;1.95;;;;;;;22.58;56.96;101526.34;5093339;28;20059;-74
2022/08/21 09:36:50;;;;;;;5.93;1.90;;;;;;;22.42;56.39;101517.66;5092269;28;20037;-74
2022/08/21 09:39:39;;;;;;;7.25;1.48;;;;;;;22.54;57.09;101522.13;5093287;28;20072;-71
2022/08/21 09:42:24;;;;;;;10.43;1.50;;;;;;;22.71;54.87;101528.16;5093345;28;20774;-73
2022/08/21 09:45:17;;;;;;;6.78;2.00;;;;;;;22.72;54.81;101530.72;5093117;28;20039;-73
2022/08/21 09:47:45;;;;;;;7.18;1.70;;;;;;;22.75;54.46;101521.56;5092081;28;20177;-72
2022/08/21 09:50:28;;;;;;;8.73;1.67;;;;;;;22.60;55.16;101528.91;5093547;28;20502;-73
2022/08/21 09:53:00;;;;;;;7.40;1.70;;;;;;;22.62;54.42;101521.59;5093861;28;20468;-74
2022/08/21 09:58:33;;;;;;;7.43;1.60;;;;;;;22.60;55.27;101521.72;5089193;28;20047;-71
2022/08/21 10:01:06;;;;;;;8.15;1.58;;;;;;;22.68;55.51;101528.38;5093195;28;20056;-72
2022/08/21 10:03:34;;;;;;;6.70;1.73;;;;;;;22.75;54.96;101521.56;5091684;28;20055;-70
2022/08/21 10:06:08;;;;;;;6.82;1.60;;;;;;;22.86;54.68;101528.88;5092001;28;20162;-72
2022/08/21 10:08:39;;;;;;;6.28;1.48;;;;;;;22.93;55.33;101532.84;5078619;28;20112;-71
2022/08/21 10:11:13;;;;;;;9.25;1.63;;;;;;;23.09;53.23;101527.22;5085099;28;20049;-72
2022/08/21 10:14:13;;;;;;;7.07;2.00;;;;;;;23.05;53.35;101523.91;5093442;28;20041;-72
2022/08/21 10:17:06;;;;;;;7.55;1.90;;;;;;;22.89;53.72;101526.84;5066600;28;20586;-69
2022/08/21 10:20:06;;;;;;;10.20;2.05;;;;;;;23.00;53.81;101517.13;5075375;28;20044;-72
2022/08/21 10:22:57;;;;;;;4.85;1.70;;;;;;;23.27;53.56;101522.38;5086796;28;20189;-72
2022/08/21 10:25:55;;;;;;;8.75;1.80;;;;;;;23.40;52.81;101511.56;5101519;28;20060;-73
2022/08/21 10:29:11;;;;;;;7.53;1.33;;;;;;;23.56;51.17;101519.34;5093432;28;20044;-72
2022/08/21 10:31:53;;;;;;;6.82;1.60;;;;;;;23.42;52.25;101515.00;5094066;28;20075;-74
2022/08/21 10:35:13;;;;;;;6.95;1.60;;;;;;;23.35;51.18;101514.59;5084892;28;20033;-72
2022/08/21 10:38:37;;;;;;;7.93;1.98;;;;;;;23.40;52.06;101517.78;5083822;28;20140;-76
2022/08/21 10:42:17;;;;;;;9.77;1.77;;;;;;;23.34;51.79;101518.25;5089399;28;20044;-71
2022/08/21 10:45:15;;;;;;;6.00;1.40;;;;;;;23.51;50.20;101514.31;5092870;28;20045;-70
2022/08/21 10:47:54;;;;;;;5.90;1.33;;;;;;;23.59;50.53;101511.03;5091007;28;20040;-70
2022/08/21 10:50:30;;;;;;;5.63;1.40;;;;;;;23.67;50.12;101508.63;5073907;28;20044;-73
2022/08/21 10:53:00;;;;;;;5.63;1.50;;;;;;;23.81;50.12;101517.50;5090397;28;20563;-73
2022/08/21 10:55:40;;;;;;;6.20;1.38;;;;;;;24.01;50.04;101516.84;5091339;28;20115;-74
2022/08/21 10:58:25;;;;;;;6.43;1.40;;;;;;;24.00;48.97;101519.66;5088584;28;20032;-75
2022/08/21 11:01:04;;;;;;;5.18;1.45;;;;;;;23.88;48.32;101522.28;5087156;28;20571;-77
2022/08/21 11:03:45;;;;;;;5.13;1.10;;;;;;;24.06;47.46;101515.63;5084567;28;20482;-76
2022/08/21 11:06:24;;;;;;;4.88;1.23;;;;;;;24.32;46.66;101519.00;5058016;28;20063;-76
2022/08/21 11:09:03;;;;;;;6.03;1.10;;;;;;;24.26;48.05;101514.94;5080306;28;20473;-76
2022/08/21 11:11:44;;;;;;;5.15;1.30;;;;;;;24.43;48.07;101515.44;5077895;28;20041;-75
2022/08/21 11:14:51;;;;;;;5.47;1.30;;;;;;;24.40;47.13;101504.94;5086077;28;20124;-74
2022/08/21 11:17:36;;;;;;;3.97;1.10;;;;;;;24.28;48.11;101510.31;5088816;28;20536;-74
2022/08/21 11:20:12;;;;;;;6.97;1.60;;;;;;;24.09;48.28;101518.09;5092225;28;20052;-74
2022/08/21 11:23:02;;;;;;;7.13;1.55;;;;;;;24.17;47.90;101513.81;5089656;28;20533;-74
2022/08/21 11:25:55;;;;;;;7.40;1.48;;;;;;;24.39;47.25;101514.84;5082415;28;20040;-76
2022/08/21 11:28:34;;;;;;;6.65;1.50;;;;;;;24.68;46.15;101503.59;5087775;28;20546;-73
2022/08/21 11:31:52;;;;;;;4.22;1.17;;;;;;;25.00;44.89;101499.31;5091213;28;20032;-74
2022/08/21 11:35:07;;;;;;;7.93;1.30;;;;;;;25.23;44.94;101495.56;5084278;28;20117;-75
2022/08/21 11:38:04;;;;;;;4.72;1.15;;;;;;;25.43;44.44;101491.25;5072091;28;20091;-75
2022/08/21 11:41:06;;;;;;;7.18;1.42;;;;;;;25.65;43.63;101488.56;5071523;28;20778;-75
2022/08/21 12:04:41;;;;;;;5.00;1.30;;;;;;;25.47;42.52;101493.69;5147133;27;20421;-74
2022/08/21 12:07:48;;;;;;;2.33;0.93;;;;;;;25.52;43.07;101486.94;5130044;27;20051;-73
2022/08/21 12:10:22;;;;;;;4.78;1.30;;;;;;;25.61;42.80;101479.88;5127425;27;20043;-72
2022/08/21 12:12:49;;;;;;;4.95;1.20;;;;;;;25.61;43.46;101482.59;5129159;27;20140;-74
2022/08/21 12:15:22;;;;;;;5.75;1.30;;;;;;;25.71;42.05;101490.78;5127148;27;20051;-73
2022/08/21 12:18:02;;;;;;;4.78;1.30;;;;;;;25.88;42.68;101494.75;5128638;27;20063;-73